createdAt,value
2024-01-05T00:02:55.450Z,1.52
2024-01-05T00:08:57.278Z,1.39
2024-01-05T00:14:58.982Z,1.29
2024-01-05T00:21:00.590Z,1.22
2024-01-05T00:27:04.094Z,1.13
2024-01-05T00:33:05.980Z,1.09
2024-01-05T00:39:07.623Z,0.99
2024-01-05T00:45:09.911Z,0.96
2024-01-05T00:51:12.282Z,0.93
2024-01-05T00:57:14.237Z,0.87
2024-01-05T01:03:15.956Z,0.93
2024-01-05T01:09:18.014Z,0.88
2024-01-05T01:15:19.720Z,0.74
2024-01-05T01:21:21.352Z,0.53
2024-01-05T01:27:22.945Z,0.50
2024-01-05T01:33:24.887Z,0.39
2024-01-05T01:39:26.514Z,0.27
2024-01-05T01:45:28.174Z,0.13
2024-01-05T01:51:34.297Z,0.04
2024-01-05T01:57:38.505Z,-0.03
2024-01-05T02:03:41.245Z,-0.08
2024-01-05T02:09:43.490Z,-0.11
2024-01-05T02:15:45.045Z,-0.15
2024-01-05T02:21:51.022Z,-0.17
2024-01-05T02:27:53.225Z,-0.17
2024-01-05T02:33:55.014Z,-0.21
2024-01-05T02:39:56.674Z,-0.28
2024-01-05T02:45:58.518Z,-0.31
2024-01-05T02:52:00.178Z,-0.37
2024-01-05T02:58:06.570Z,-0.38
2024-01-05T03:04:12.546Z,-0.39
2024-01-05T03:10:14.429Z,-0.43
2024-01-05T03:16:16.151Z,-0.45
2024-01-05T03:22:17.864Z,-0.47
2024-01-05T03:28:19.443Z,-0.50
2024-01-05T03:34:21.135Z,-0.48
2024-01-05T03:40:23.549Z,-0.48
2024-01-05T03:46:25.110Z,-0.43
2024-01-05T03:52:26.700Z,-0.35
2024-01-05T03:58:29.491Z,-0.36
2024-01-05T04:04:31.266Z,-0.38
2024-01-05T04:10:32.877Z,-0.40
2024-01-05T04:16:34.813Z,-0.40
2024-01-05T04:22:36.460Z,-0.35
2024-01-05T04:28:38.025Z,-0.31
2024-01-05T04:34:39.744Z,-0.24
2024-01-05T04:40:41.473Z,-0.28
2024-01-05T04:46:43.643Z,-0.28
2024-01-05T04:52:45.358Z,-0.25
2024-01-05T04:58:46.993Z,-0.19
2024-01-05T05:04:48.988Z,-0.13
2024-01-05T05:10:50.763Z,-0.13
2024-01-05T05:16:52.374Z,-0.14
2024-01-05T05:22:54.027Z,-0.15
2024-01-05T05:28:57.808Z,-0.10
2024-01-05T05:34:59.430Z,-0.08
2024-01-05T05:41:02.044Z,0.02
2024-01-05T05:47:03.842Z,-0.03
2024-01-05T05:53:05.483Z,-0.04
2024-01-05T05:59:07.257Z,-0.04
2024-01-05T06:05:08.947Z,-0.08
2024-01-05T06:11:10.551Z,-0.03
2024-01-05T06:17:12.173Z,0.06
2024-01-05T06:23:16.444Z,0.08
2024-01-05T06:29:18.805Z,0.07
2024-01-05T06:35:20.360Z,0.00
2024-01-05T06:41:21.946Z,-0.03
2024-01-05T06:47:23.585Z,0.05
2024-01-05T06:53:25.194Z,0.05
2024-01-05T06:59:31.219Z,0.05
2024-01-05T07:05:32.938Z,0.07
2024-01-05T07:11:35.651Z,0.13
2024-01-05T07:17:38.532Z,0.24
2024-01-05T07:23:40.451Z,0.36
2024-01-05T07:29:42.021Z,0.43
2024-01-05T07:35:43.605Z,0.51
2024-01-05T07:41:45.486Z,0.67
2024-01-05T07:47:49.235Z,0.77
2024-01-05T07:53:51.126Z,0.87
2024-01-05T07:59:52.822Z,1.00
2024-01-05T08:05:54.497Z,1.25
2024-01-05T08:11:56.130Z,1.23
2024-01-05T08:17:58.377Z,1.36
2024-01-05T08:24:00.173Z,1.46
2024-01-05T08:30:01.898Z,1.56
2024-01-05T08:36:03.801Z,1.64
2024-01-05T08:42:05.778Z,1.82
2024-01-05T08:48:07.573Z,1.93
2024-01-05T08:54:11.002Z,2.06
2024-01-05T09:00:14.808Z,2.30
2024-01-05T09:06:16.556Z,2.38
2024-01-05T09:12:18.175Z,2.54
2024-01-05T09:18:19.908Z,2.84
2024-01-05T09:24:21.678Z,3.37
2024-01-05T09:30:25.950Z,3.70
2024-01-05T09:36:27.656Z,4.13
2024-01-05T09:42:29.363Z,4.23
2024-01-05T09:48:36.722Z,4.28
2024-01-05T09:54:44.641Z,4.41
2024-01-05T10:00:51.192Z,4.40
2024-01-05T10:07:00.383Z,4.70
2024-01-05T10:13:08.012Z,4.95
2024-01-05T10:19:20.756Z,5.15
2024-01-05T10:25:23.308Z,5.37
2024-01-05T10:31:25.095Z,5.43
2024-01-05T10:37:26.919Z,5.61
2024-01-05T10:43:28.499Z,5.69
2024-01-05T10:49:31.882Z,5.75
2024-01-05T10:55:36.307Z,6.05
2024-01-05T11:01:38.841Z,6.28
2024-01-05T11:07:41.885Z,6.40
2024-01-05T11:14:02.210Z,6.64
2024-01-05T11:20:20.913Z,6.78
2024-01-05T11:26:37.305Z,6.94
2024-01-05T11:32:40.385Z,7.06
2024-01-05T11:38:48.245Z,7.19
2024-01-05T11:44:49.799Z,7.30
2024-01-05T11:50:51.384Z,7.42
2024-01-05T11:56:55.871Z,7.20
2024-01-05T12:03:04.585Z,6.92
2024-01-05T12:09:06.475Z,7.15
2024-01-05T12:15:09.706Z,7.47
2024-01-05T12:21:17.557Z,8.46
2024-01-05T12:27:20.310Z,9.67
2024-01-05T12:33:22.741Z,10.19
2024-01-05T12:39:24.437Z,9.64
2024-01-05T12:45:27.452Z,8.99
2024-01-05T12:51:29.212Z,8.61
2024-01-05T12:57:31.492Z,8.35
2024-01-05T13:03:33.345Z,8.13
2024-01-05T13:09:35.139Z,7.99
2024-01-05T13:15:36.776Z,7.67
2024-01-05T13:21:38.651Z,7.50
2024-01-05T13:27:41.320Z,7.32
2024-01-05T13:33:43.870Z,7.11
2024-01-05T13:39:45.566Z,6.95
2024-01-05T13:45:47.273Z,6.88
2024-01-05T13:51:49.046Z,6.73
2024-01-05T13:57:50.689Z,6.70
2024-01-05T14:03:52.305Z,6.66
2024-01-05T14:09:54.246Z,6.58
2024-01-05T14:15:55.815Z,6.49
2024-01-05T14:21:58.949Z,6.44
2024-01-05T14:28:00.548Z,6.31
2024-01-05T14:34:03.466Z,6.23
2024-01-05T14:40:07.237Z,6.13
2024-01-05T14:46:13.716Z,6.12
2024-01-05T14:52:15.379Z,6.07
2024-01-05T14:58:17.001Z,6.11
2024-01-05T15:04:18.879Z,6.06
2024-01-05T15:10:21.598Z,6.04
2024-01-05T15:16:23.384Z,5.92
2024-01-05T15:22:25.072Z,5.86
2024-01-05T15:28:26.784Z,5.78
2024-01-05T15:34:28.506Z,5.71
2024-01-05T15:40:31.204Z,5.68
2024-01-05T15:46:34.477Z,5.55
2024-01-05T15:52:36.594Z,5.53
2024-01-05T15:58:39.579Z,5.47
2024-01-05T16:04:41.331Z,5.45
2024-01-05T16:10:43.142Z,5.38
2024-01-05T16:16:45.900Z,5.36
2024-01-05T16:22:47.516Z,5.33
2024-01-05T16:28:58.092Z,5.26
2024-01-05T16:35:02.800Z,5.23
2024-01-05T16:41:08.170Z,5.19
2024-01-05T16:47:09.919Z,5.07
2024-01-05T16:53:11.973Z,5.02
2024-01-05T16:59:13.591Z,4.98
2024-01-05T17:05:18.940Z,5.01
2024-01-05T17:11:24.761Z,5.02
2024-01-05T17:17:29.796Z,5.01
2024-01-05T17:23:34.255Z,5.00
2024-01-05T17:29:36.714Z,4.98
2024-01-05T17:35:38.420Z,4.97
2024-01-05T17:41:40.441Z,5.01
2024-01-05T17:47:42.205Z,4.98
2024-01-05T17:53:44.969Z,4.98
2024-01-05T17:59:47.776Z,5.08
2024-01-05T18:05:51.804Z,5.10
2024-01-05T18:11:53.941Z,5.00
2024-01-05T18:17:56.445Z,4.96
2024-01-05T18:24:01.137Z,4.96
2024-01-05T18:30:03.946Z,4.96
2024-01-05T18:36:07.440Z,4.92
2024-01-05T18:42:10.046Z,4.91
2024-01-05T18:48:12.590Z,4.88
2024-01-05T18:54:14.326Z,4.86
2024-01-05T19:00:16.476Z,4.84
2024-01-05T19:06:18.284Z,4.81
2024-01-05T19:12:20.509Z,4.79
2024-01-05T19:18:22.390Z,4.73
2024-01-05T19:24:24.717Z,4.77
2024-01-05T19:30:26.986Z,4.73
2024-01-05T19:36:28.926Z,4.60
2024-01-05T19:42:30.675Z,4.48
2024-01-05T19:48:32.667Z,4.42
2024-01-05T19:54:39.611Z,4.42
2024-01-05T20:00:41.347Z,4.36
2024-01-05T20:06:44.011Z,4.35
2024-01-05T20:12:47.225Z,4.32
2024-01-05T20:18:49.413Z,4.30
2024-01-05T20:24:51.143Z,4.27
2024-01-05T20:30:52.989Z,4.30
2024-01-05T20:36:58.593Z,4.32
2024-01-05T20:43:00.332Z,4.37
2024-01-05T20:49:02.154Z,4.39
2024-01-05T20:55:04.190Z,4.38
2024-01-05T21:01:06.609Z,4.41
2024-01-05T21:07:11.063Z,4.42
2024-01-05T21:13:13.721Z,4.38
2024-01-05T21:19:15.718Z,4.39
2024-01-05T21:25:17.912Z,4.38
2024-01-05T21:31:21.049Z,4.38
2024-01-05T21:37:24.042Z,4.39
2024-01-05T21:43:25.612Z,4.38
2024-01-05T21:49:27.833Z,4.38
2024-01-05T21:55:29.884Z,4.39
2024-01-05T22:01:31.750Z,4.41
2024-01-05T22:07:33.408Z,4.35
2024-01-05T22:13:35.194Z,4.32
2024-01-05T22:19:36.997Z,4.28
2024-01-05T22:25:41.444Z,4.29
2024-01-05T22:31:45.057Z,4.28
2024-01-05T22:37:47.715Z,4.26
2024-01-05T22:43:50.946Z,4.28
2024-01-05T22:49:52.817Z,4.28
2024-01-05T22:55:55.630Z,4.29
2024-01-05T23:01:59.007Z,4.28
2024-01-05T23:08:00.750Z,4.26
2024-01-05T23:14:03.361Z,4.25
2024-01-05T23:20:06.488Z,4.27
2024-01-05T23:26:20.026Z,4.24
2024-01-05T23:32:22.401Z,4.23
2024-01-05T23:38:24.412Z,4.19
2024-01-05T23:44:26.022Z,4.16
2024-01-05T23:50:34.611Z,4.13
2024-01-05T23:56:36.169Z,4.15
